createdAt,value
2023-02-08T00:01:07.587Z,56.42
2023-02-08T00:03:35.126Z,56.45
2023-02-08T00:06:02.860Z,55.92
2023-02-08T00:08:30.929Z,56.97
2023-02-08T00:10:58.187Z,58.86
2023-02-08T00:13:26.061Z,59.32
2023-02-08T00:15:54.647Z,60.36
2023-02-08T00:18:22.460Z,60.43
2023-02-08T00:20:50.062Z,60.80
2023-02-08T00:23:17.418Z,60.39
2023-02-08T00:25:44.737Z,60.46
2023-02-08T00:28:13.940Z,61.50
2023-02-08T00:30:43.578Z,61.78
2023-02-08T00:33:12.394Z,61.63
2023-02-08T00:35:41.102Z,60.89
2023-02-08T00:38:08.447Z,61.62
2023-02-08T00:40:35.700Z,61.92
2023-02-08T00:43:03.659Z,61.83
2023-02-08T00:45:32.093Z,61.30
2023-02-08T00:47:59.549Z,61.34
2023-02-08T00:50:26.801Z,62.26
2023-02-08T00:52:54.049Z,61.77
2023-02-08T00:55:21.300Z,61.91
2023-02-08T00:57:48.559Z,61.80
2023-02-08T01:00:16.032Z,62.26
2023-02-08T01:02:43.347Z,62.77
2023-02-08T01:05:11.924Z,62.78
2023-02-08T01:07:40.164Z,62.70
2023-02-08T01:10:12.471Z,62.99
2023-02-08T01:12:41.365Z,63.14
2023-02-08T01:15:09.135Z,62.59
2023-02-08T01:17:36.451Z,63.40
2023-02-08T01:20:03.938Z,63.78
2023-02-08T01:22:31.149Z,63.87
2023-02-08T01:24:58.366Z,64.96
2023-02-08T01:27:25.786Z,65.29
2023-02-08T01:29:53.397Z,65.14
2023-02-08T01:32:20.790Z,65.30
2023-02-08T01:34:48.069Z,65.02
2023-02-08T01:37:15.359Z,64.91
2023-02-08T01:39:42.634Z,65.65
2023-02-08T01:42:13.997Z,66.00
2023-02-08T01:45:23.002Z,65.74
2023-02-08T01:47:54.089Z,65.47
2023-02-08T01:50:24.533Z,65.58
2023-02-08T01:52:52.059Z,65.91
2023-02-08T01:55:27.386Z,66.67
2023-02-08T01:57:56.413Z,67.07
2023-02-08T02:00:24.562Z,66.58
2023-02-08T02:02:54.224Z,65.98
2023-02-08T02:05:23.243Z,66.27
2023-02-08T02:07:52.217Z,66.13
2023-02-08T02:10:26.998Z,66.94
2023-02-08T02:12:55.784Z,66.18
2023-02-08T02:15:23.666Z,65.58
2023-02-08T02:17:50.918Z,65.49
2023-02-08T02:20:40.185Z,65.78
2023-02-08T02:23:13.408Z,65.77
2023-02-08T02:25:49.784Z,65.10
2023-02-08T02:28:43.233Z,66.37
2023-02-08T02:32:08.051Z,65.38
2023-02-08T02:34:46.802Z,65.38
2023-02-08T02:37:29.039Z,65.42
2023-02-08T02:40:20.442Z,65.47
2023-02-08T02:43:15.259Z,64.28
2023-02-08T02:46:19.909Z,63.65
2023-02-08T02:49:02.523Z,63.21
2023-02-08T02:51:40.816Z,62.49
2023-02-08T02:54:41.083Z,61.97
2023-02-08T02:57:11.582Z,61.77
2023-02-08T02:59:39.663Z,62.19
2023-02-08T03:02:06.915Z,63.46
2023-02-08T03:04:34.187Z,62.68
2023-02-08T03:07:10.508Z,65.74
2023-02-08T03:10:05.637Z,64.63
2023-02-08T03:12:57.769Z,64.19
2023-02-08T03:15:46.642Z,63.19
2023-02-08T03:18:26.134Z,63.09
2023-02-08T03:21:28.157Z,62.45
2023-02-08T03:24:07.566Z,62.98
2023-02-08T03:26:39.084Z,63.55
2023-02-08T03:29:12.617Z,62.39
2023-02-08T03:31:51.775Z,62.33
2023-02-08T03:34:44.662Z,62.91
2023-02-08T03:37:17.979Z,63.03
2023-02-08T03:39:47.081Z,64.27
2023-02-08T03:42:21.698Z,63.66
2023-02-08T03:44:57.317Z,63.03
2023-02-08T03:47:30.330Z,62.64
2023-02-08T03:50:00.511Z,62.85
2023-02-08T03:52:28.770Z,63.64
2023-02-08T03:55:01.410Z,63.73
2023-02-08T03:57:36.044Z,63.16
2023-02-08T04:00:09.773Z,62.58
2023-02-08T04:02:44.204Z,62.93
2023-02-08T04:05:11.778Z,63.40
2023-02-08T04:07:39.073Z,62.65
2023-02-08T04:10:06.640Z,62.59
2023-02-08T04:12:33.883Z,63.76
2023-02-08T04:15:01.220Z,64.17
2023-02-08T04:17:28.504Z,63.44
2023-02-08T04:19:55.761Z,63.71
2023-02-08T04:22:23.045Z,62.97
2023-02-08T04:24:50.237Z,63.08
2023-02-08T04:27:17.759Z,63.56
2023-02-08T04:29:45.013Z,63.20
2023-02-08T04:32:13.480Z,63.09
2023-02-08T04:34:41.308Z,63.35
2023-02-08T04:37:08.906Z,63.48
2023-02-08T04:39:36.238Z,63.30
2023-02-08T04:42:03.562Z,63.56
2023-02-08T04:44:32.878Z,64.64
2023-02-08T04:47:00.508Z,64.75
2023-02-08T04:49:27.876Z,65.12
2023-02-08T04:51:55.200Z,65.30
2023-02-08T04:54:23.040Z,65.62
2023-02-08T04:56:50.314Z,65.38
2023-02-08T04:59:18.419Z,66.00
2023-02-08T05:01:45.961Z,66.01
2023-02-08T05:04:13.344Z,66.92
2023-02-08T05:06:40.695Z,67.15
2023-02-08T05:09:09.222Z,65.32
2023-02-08T05:11:36.842Z,65.04
2023-02-08T05:14:04.729Z,64.49
2023-02-08T05:16:32.183Z,64.28
2023-02-08T05:18:59.515Z,64.23
2023-02-08T05:21:27.002Z,63.92
2023-02-08T05:23:54.360Z,63.50
2023-02-08T05:26:21.734Z,63.36
2023-02-08T05:28:49.068Z,63.87
2023-02-08T05:31:25.506Z,63.00
2023-02-08T05:33:53.540Z,63.07
2023-02-08T05:36:21.277Z,63.28
2023-02-08T05:38:49.243Z,63.15
2023-02-08T05:41:17.263Z,62.86
2023-02-08T05:43:45.928Z,62.01
2023-02-08T05:46:13.731Z,62.85
2023-02-08T05:48:41.111Z,62.48
2023-02-08T05:51:08.688Z,62.47
2023-02-08T05:53:36.814Z,63.29
2023-02-08T05:56:05.216Z,63.07
2023-02-08T05:58:33.799Z,62.97
2023-02-08T06:01:01.232Z,63.33
2023-02-08T06:03:31.307Z,62.61
2023-02-08T06:06:01.015Z,63.32
2023-02-08T06:08:28.525Z,63.59
2023-02-08T06:10:55.770Z,63.58
2023-02-08T06:13:23.196Z,64.33
2023-02-08T06:15:50.449Z,64.61
2023-02-08T06:18:18.553Z,64.79
2023-02-08T06:20:46.008Z,65.00
2023-02-08T06:23:13.283Z,64.40
2023-02-08T06:25:40.534Z,65.11
2023-02-08T06:28:10.740Z,64.96
2023-02-08T06:30:39.115Z,64.06
2023-02-08T06:33:06.552Z,62.96
2023-02-08T06:35:34.035Z,63.29
2023-02-08T06:38:01.358Z,63.52
2023-02-08T06:40:28.756Z,63.61
2023-02-08T06:42:56.392Z,64.35
2023-02-08T06:45:23.780Z,64.38
2023-02-08T06:47:51.342Z,63.65
2023-02-08T06:50:18.741Z,63.40
2023-02-08T06:52:45.963Z,61.96
2023-02-08T06:55:13.798Z,61.26
2023-02-08T06:57:41.091Z,61.16
2023-02-08T07:00:09.134Z,61.49
2023-02-08T07:02:37.489Z,62.20
2023-02-08T07:05:05.132Z,62.18
2023-02-08T07:07:33.185Z,62.34
2023-02-08T07:10:00.764Z,62.74
2023-02-08T07:12:28.242Z,62.80
2023-02-08T07:14:55.560Z,63.50
2023-02-08T07:17:23.349Z,62.70
2023-02-08T07:19:51.087Z,63.18
2023-02-08T07:22:18.358Z,63.90
2023-02-08T07:24:45.637Z,62.52
2023-02-08T07:27:13.573Z,61.85
2023-02-08T07:29:41.266Z,61.45
2023-02-08T07:32:08.778Z,61.05
2023-02-08T07:34:37.690Z,61.48
2023-02-08T07:37:05.182Z,60.39
2023-02-08T07:39:32.728Z,60.02
2023-02-08T07:42:00.321Z,59.21
2023-02-08T07:44:32.402Z,59.82
2023-02-08T07:47:01.691Z,59.00
2023-02-08T07:49:29.061Z,59.47
2023-02-08T07:51:57.261Z,59.59
2023-02-08T07:54:24.623Z,59.18
2023-02-08T07:56:51.896Z,58.50
2023-02-08T07:59:19.503Z,58.50
2023-02-08T08:01:53.610Z,58.86
2023-02-08T08:04:22.104Z,58.73
2023-02-08T08:06:51.466Z,58.41
2023-02-08T08:09:20.313Z,58.81
2023-02-08T08:11:47.561Z,58.58
2023-02-08T08:14:14.891Z,58.61
2023-02-08T08:16:44.523Z,58.45
2023-02-08T08:19:12.333Z,58.42
2023-02-08T08:21:40.877Z,58.17
2023-02-08T08:24:08.409Z,57.16
2023-02-08T08:26:35.665Z,56.26
2023-02-08T08:29:03.090Z,56.23
2023-02-08T08:31:31.037Z,58.07
2023-02-08T08:33:58.505Z,56.82
2023-02-08T08:36:25.839Z,56.27
2023-02-08T08:38:53.262Z,54.85
2023-02-08T08:41:22.777Z,54.68
2023-02-08T08:43:50.137Z,54.20
2023-02-08T08:46:18.327Z,53.07
2023-02-08T08:48:46.888Z,54.61
2023-02-08T08:51:14.572Z,53.98
2023-02-08T08:53:41.816Z,53.06
2023-02-08T08:56:09.230Z,52.83
2023-02-08T08:58:36.605Z,52.64
2023-02-08T09:01:04.098Z,53.13
2023-02-08T09:03:31.586Z,53.56
2023-02-08T09:05:58.941Z,52.55
2023-02-08T09:08:26.382Z,52.60
2023-02-08T09:10:53.692Z,51.32
2023-02-08T09:13:21.942Z,52.15
2023-02-08T09:15:49.497Z,51.69
2023-02-08T09:18:16.982Z,52.20
2023-02-08T09:20:45.167Z,51.72
2023-02-08T09:23:12.936Z,52.12
2023-02-08T09:25:40.190Z,52.39
2023-02-08T09:28:08.144Z,52.58
2023-02-08T09:30:35.520Z,52.24
2023-02-08T09:33:02.803Z,52.04
2023-02-08T09:35:30.312Z,51.70
2023-02-08T09:37:58.364Z,51.30
2023-02-08T09:40:28.851Z,50.89
2023-02-08T09:43:10.062Z,50.98
2023-02-08T09:45:41.333Z,50.77
2023-02-08T09:48:24.588Z,51.04
2023-02-08T09:51:04.980Z,50.54
2023-02-08T09:53:40.355Z,50.96
2023-02-08T09:56:12.235Z,50.27
2023-02-08T09:58:49.601Z,49.81
2023-02-08T10:01:21.756Z,49.45
2023-02-08T10:03:51.524Z,49.83
2023-02-08T10:06:20.145Z,49.55
2023-02-08T10:08:50.185Z,49.19
2023-02-08T10:11:28.379Z,48.97
2023-02-08T10:13:55.752Z,48.65
2023-02-08T10:16:36.850Z,48.84
2023-02-08T10:19:34.988Z,48.31
2023-02-08T10:22:05.079Z,47.75
2023-02-08T10:24:50.399Z,48.08
2023-02-08T10:27:40.839Z,47.63
2023-02-08T10:30:28.882Z,47.00
2023-02-08T10:33:02.399Z,46.88
2023-02-08T10:35:37.311Z,47.23
2023-02-08T10:38:45.361Z,47.09
2023-02-08T10:41:34.399Z,46.49
2023-02-08T10:44:12.487Z,46.71
2023-02-08T10:46:47.942Z,46.00
2023-02-08T10:49:38.168Z,46.76
2023-02-08T10:52:06.195Z,46.58
2023-02-08T10:54:36.630Z,46.03
2023-02-08T10:57:07.424Z,46.23
2023-02-08T10:59:59.012Z,44.74
2023-02-08T11:02:28.817Z,43.96
2023-02-08T11:05:04.128Z,56.33
2023-02-08T11:07:33.618Z,45.68
2023-02-08T11:10:14.642Z,39.61
2023-02-08T11:12:44.249Z,40.18
2023-02-08T11:15:47.802Z,41.42
2023-02-08T11:18:26.904Z,42.01
2023-02-08T11:21:00.110Z,42.08
2023-02-08T11:23:32.783Z,43.16
2023-02-08T11:26:31.263Z,42.27
2023-02-08T11:28:58.537Z,42.36
2023-02-08T11:31:26.008Z,42.09
2023-02-08T11:34:05.509Z,42.51
2023-02-08T11:36:34.773Z,42.81
2023-02-08T11:39:04.637Z,42.56
2023-02-08T11:41:34.054Z,43.24
2023-02-08T11:44:06.193Z,42.02
2023-02-08T11:46:35.413Z,41.40
2023-02-08T11:49:03.926Z,41.71
2023-02-08T11:51:37.164Z,41.47
2023-02-08T11:54:06.469Z,41.79
2023-02-08T11:56:38.283Z,40.36
2023-02-08T11:59:23.250Z,40.19
2023-02-08T12:01:50.758Z,40.20
2023-02-08T12:04:18.044Z,39.75
2023-02-08T12:07:27.755Z,38.49
2023-02-08T12:10:03.503Z,39.94
2023-02-08T12:12:53.636Z,39.66
2023-02-08T12:15:24.058Z,39.63
2023-02-08T12:18:04.320Z,40.56
2023-02-08T12:20:45.384Z,40.56
2023-02-08T12:23:34.994Z,39.40
2023-02-08T12:26:17.055Z,39.56
2023-02-08T12:28:50.274Z,39.38
2023-02-08T12:31:27.909Z,39.02
2023-02-08T12:34:16.013Z,39.01
2023-02-08T12:37:20.915Z,39.20
2023-02-08T12:40:19.186Z,40.43
2023-02-08T12:43:03.757Z,40.00
2023-02-08T12:45:43.711Z,39.40
2023-02-08T12:48:48.305Z,39.73
2023-02-08T12:51:27.771Z,39.21
2023-02-08T12:54:03.057Z,38.97
2023-02-08T12:56:34.124Z,39.56
2023-02-08T12:59:13.071Z,39.82
2023-02-08T13:01:44.448Z,39.65
2023-02-08T13:04:26.136Z,39.33
2023-02-08T13:06:57.019Z,37.96
2023-02-08T13:09:35.363Z,38.21
2023-02-08T13:12:16.562Z,38.78
2023-02-08T13:14:52.856Z,38.50
2023-02-08T13:17:29.245Z,38.35
2023-02-08T13:20:26.012Z,38.28
2023-02-08T13:22:56.930Z,37.53
2023-02-08T13:25:30.906Z,37.47
2023-02-08T13:28:03.890Z,37.88
2023-02-08T13:30:32.516Z,37.71
2023-02-08T13:33:05.827Z,37.31
2023-02-08T13:35:33.620Z,37.05
2023-02-08T13:38:05.012Z,37.49
2023-02-08T13:40:34.876Z,37.82
2023-02-08T13:43:09.325Z,37.15
2023-02-08T13:45:41.823Z,37.46
2023-02-08T13:48:12.174Z,37.33
2023-02-08T13:50:45.400Z,37.19
2023-02-08T13:53:14.989Z,36.43
2023-02-08T13:55:53.512Z,36.48
2023-02-08T13:58:28.470Z,35.26
2023-02-08T14:00:56.556Z,35.48
2023-02-08T14:03:31.047Z,34.71
2023-02-08T14:06:04.252Z,34.20
2023-02-08T14:08:39.766Z,33.46
2023-02-08T14:11:39.211Z,33.36
2023-02-08T14:14:14.102Z,33.26
2023-02-08T14:16:45.846Z,32.69
2023-02-08T14:19:15.893Z,32.71
2023-02-08T14:21:43.810Z,32.77
2023-02-08T14:24:27.484Z,32.79
2023-02-08T14:27:09.197Z,31.91
2023-02-08T14:29:37.412Z,33.06
2023-02-08T14:32:05.138Z,31.59
2023-02-08T14:34:35.684Z,31.93
2023-02-08T14:37:06.760Z,31.70
2023-02-08T14:39:35.186Z,30.50
2023-02-08T14:42:07.440Z,30.88
2023-02-08T14:44:37.885Z,31.27
2023-02-08T14:47:26.837Z,31.68
2023-02-08T14:50:38.735Z,32.01
2023-02-08T14:53:16.693Z,32.11
2023-02-08T14:55:51.479Z,31.76
2023-02-08T14:58:28.427Z,31.78
2023-02-08T15:00:57.939Z,31.61
2023-02-08T15:03:26.997Z,31.89
2023-02-08T15:06:06.472Z,31.96
2023-02-08T15:08:33.980Z,31.97
2023-02-08T15:11:01.312Z,31.89
2023-02-08T15:13:29.670Z,31.41
2023-02-08T15:15:57.727Z,32.05
2023-02-08T15:18:29.599Z,31.66
2023-02-08T15:21:05.872Z,31.75
2023-02-08T15:23:33.476Z,30.99
2023-02-08T15:26:03.560Z,31.23
2023-02-08T15:28:31.594Z,31.84
2023-02-08T15:31:02.396Z,31.91
2023-02-08T15:33:29.870Z,32.36
2023-02-08T15:35:59.006Z,31.96
2023-02-08T15:38:26.574Z,31.83
2023-02-08T15:41:09.843Z,32.26
2023-02-08T15:43:39.002Z,31.90
2023-02-08T15:46:16.514Z,32.44
2023-02-08T15:48:48.014Z,31.52
2023-02-08T15:51:16.226Z,31.75
2023-02-08T15:53:49.847Z,32.09
2023-02-08T15:56:42.722Z,31.84
2023-02-08T15:59:17.696Z,31.83
2023-02-08T16:01:48.736Z,32.29
2023-02-08T16:04:16.388Z,32.17
2023-02-08T16:07:01.935Z,32.23
2023-02-08T16:09:30.308Z,32.28
2023-02-08T16:11:59.837Z,32.86
2023-02-08T16:14:30.196Z,32.66
2023-02-08T16:16:59.464Z,32.73
2023-02-08T16:19:27.692Z,32.70
2023-02-08T16:22:16.932Z,32.60
2023-02-08T16:24:46.907Z,33.72
2023-02-08T16:27:24.295Z,33.62
2023-02-08T16:29:51.771Z,33.67
2023-02-08T16:32:29.300Z,33.90
2023-02-08T16:34:56.918Z,33.91
2023-02-08T16:37:40.971Z,34.62
2023-02-08T16:40:43.765Z,34.32
2023-02-08T16:43:18.033Z,34.76
2023-02-08T16:45:45.856Z,34.97
2023-02-08T16:48:39.077Z,35.06
2023-02-08T16:51:26.034Z,35.44
2023-02-08T16:54:01.084Z,35.48
2023-02-08T16:56:35.245Z,35.28
2023-02-08T16:59:03.045Z,35.40
2023-02-08T17:01:31.046Z,35.62
2023-02-08T17:04:00.313Z,35.62
2023-02-08T17:06:30.352Z,35.49
2023-02-08T17:08:58.527Z,35.47
2023-02-08T17:11:26.375Z,35.94
2023-02-08T17:13:54.688Z,35.66
2023-02-08T17:16:24.680Z,36.04
2023-02-08T17:18:52.414Z,35.62
2023-02-08T17:21:20.434Z,35.57
2023-02-08T17:23:47.953Z,36.40
2023-02-08T17:26:23.206Z,35.88
2023-02-08T17:28:50.925Z,36.36
2023-02-08T17:31:19.132Z,36.07
2023-02-08T17:33:46.731Z,35.79
2023-02-08T17:36:15.651Z,35.97
2023-02-08T17:38:45.828Z,36.25
2023-02-08T17:41:15.612Z,36.20
2023-02-08T17:43:43.186Z,36.22
2023-02-08T17:46:12.658Z,36.12
2023-02-08T17:48:40.273Z,37.37
2023-02-08T17:51:15.993Z,36.91
2023-02-08T17:53:44.557Z,36.81
2023-02-08T17:56:18.581Z,37.21
2023-02-08T17:58:48.928Z,37.45
2023-02-08T18:01:21.902Z,37.84
2023-02-08T18:03:50.657Z,38.38
2023-02-08T18:06:20.706Z,38.84
2023-02-08T18:08:48.192Z,38.47
2023-02-08T18:11:19.724Z,39.27
2023-02-08T18:13:48.565Z,39.28
2023-02-08T18:16:26.355Z,40.19
2023-02-08T18:18:58.445Z,40.00
2023-02-08T18:21:28.965Z,40.49
2023-02-08T18:23:56.525Z,41.01
2023-02-08T18:26:26.022Z,40.66
2023-02-08T18:28:53.742Z,40.35
2023-02-08T18:31:21.581Z,40.76
2023-02-08T18:33:49.825Z,40.92
2023-02-08T18:36:18.134Z,40.58
2023-02-08T18:38:47.133Z,40.21
2023-02-08T18:41:17.214Z,40.26
2023-02-08T18:43:44.771Z,40.53
2023-02-08T18:46:15.322Z,40.96
2023-02-08T18:48:43.834Z,40.88
2023-02-08T18:51:14.413Z,41.32
2023-02-08T18:53:42.310Z,41.02
2023-02-08T18:56:11.658Z,41.38
2023-02-08T18:58:39.644Z,41.35
2023-02-08T19:01:13.787Z,41.30
2023-02-08T19:03:41.317Z,41.03
2023-02-08T19:06:11.321Z,40.77
2023-02-08T19:08:40.324Z,41.22
2023-02-08T19:11:28.816Z,41.65
2023-02-08T19:13:57.534Z,41.29
2023-02-08T19:16:25.606Z,40.92
2023-02-08T19:18:53.516Z,40.98
2023-02-08T19:21:21.569Z,40.92
2023-02-08T19:23:53.736Z,41.47
2023-02-08T19:26:26.870Z,41.32
2023-02-08T19:28:59.321Z,41.74
2023-02-08T19:31:28.162Z,41.53
2023-02-08T19:33:58.765Z,41.35
2023-02-08T19:36:38.793Z,41.86
2023-02-08T19:39:06.783Z,41.67
2023-02-08T19:41:37.107Z,41.47
2023-02-08T19:44:07.317Z,41.82
2023-02-08T19:46:38.681Z,41.56
2023-02-08T19:49:10.328Z,42.07
2023-02-08T19:51:38.212Z,41.81
2023-02-08T19:54:09.626Z,42.16
2023-02-08T19:56:37.253Z,42.11
2023-02-08T19:59:08.555Z,41.99
2023-02-08T20:01:36.500Z,42.10
2023-02-08T20:04:05.788Z,41.91
2023-02-08T20:06:35.827Z,41.99
2023-02-08T20:09:04.703Z,42.29
2023-02-08T20:11:35.971Z,42.09
2023-02-08T20:14:05.938Z,42.91
2023-02-08T20:16:33.941Z,43.99
2023-02-08T20:19:01.549Z,44.32
2023-02-08T20:21:32.885Z,44.31
2023-02-08T20:24:14.393Z,43.57
2023-02-08T20:26:51.957Z,44.64
2023-02-08T20:29:22.780Z,44.88
2023-02-08T20:31:55.703Z,45.44
2023-02-08T20:34:23.573Z,45.63
2023-02-08T20:37:05.792Z,46.65
2023-02-08T20:39:38.399Z,46.13
2023-02-08T20:42:06.307Z,46.25
2023-02-08T20:44:34.472Z,46.10
2023-02-08T20:47:04.563Z,46.24
2023-02-08T20:49:33.089Z,46.41
2023-02-08T20:52:00.882Z,46.04
2023-02-08T20:54:31.122Z,45.69
2023-02-08T20:57:04.831Z,46.44
2023-02-08T20:59:35.626Z,46.58
2023-02-08T21:02:05.267Z,46.76
2023-02-08T21:04:38.724Z,47.40
2023-02-08T21:07:06.313Z,47.20
2023-02-08T21:09:33.573Z,47.26
2023-02-08T21:12:10.162Z,47.70
2023-02-08T21:14:37.916Z,48.06
2023-02-08T21:17:10.741Z,48.26
2023-02-08T21:19:39.643Z,49.56
2023-02-08T21:22:09.637Z,50.07
2023-02-08T21:24:37.056Z,49.57
2023-02-08T21:27:07.367Z,49.52
2023-02-08T21:29:37.993Z,49.48
2023-02-08T21:32:05.673Z,49.21
2023-02-08T21:34:33.384Z,49.50
2023-02-08T21:37:00.999Z,49.74
2023-02-08T21:39:28.309Z,49.77
2023-02-08T21:41:55.746Z,49.97
2023-02-08T21:44:23.728Z,50.04
2023-02-08T21:46:51.171Z,50.12
2023-02-08T21:49:37.218Z,49.92
2023-02-08T21:52:23.049Z,50.14
2023-02-08T21:54:53.803Z,49.94
2023-02-08T21:57:23.782Z,50.50
2023-02-08T21:59:53.592Z,50.02
2023-02-08T22:02:26.303Z,50.76
2023-02-08T22:05:14.604Z,50.24
2023-02-08T22:07:43.287Z,50.26
2023-02-08T22:10:12.050Z,50.24
2023-02-08T22:12:41.909Z,50.61
2023-02-08T22:15:11.651Z,51.30
2023-02-08T22:17:53.769Z,51.31
2023-02-08T22:20:22.204Z,51.43
2023-02-08T22:22:54.859Z,51.31
2023-02-08T22:25:24.972Z,51.96
2023-02-08T22:27:57.095Z,52.05
2023-02-08T22:30:25.663Z,51.48
2023-02-08T22:32:53.170Z,51.68
2023-02-08T22:35:20.511Z,52.30
2023-02-08T22:37:47.884Z,52.21
2023-02-08T22:40:15.331Z,52.17
2023-02-08T22:42:42.918Z,51.86
2023-02-08T22:45:10.382Z,52.37
2023-02-08T22:47:38.122Z,52.50
2023-02-08T22:50:08.860Z,52.37
2023-02-08T22:52:36.302Z,53.24
2023-02-08T22:55:04.710Z,52.76
2023-02-08T22:57:34.248Z,52.71
2023-02-08T23:00:01.770Z,53.24
2023-02-08T23:02:29.058Z,54.10
2023-02-08T23:04:56.493Z,54.27
2023-02-08T23:07:23.912Z,54.88
2023-02-08T23:09:51.198Z,54.46
2023-02-08T23:12:18.496Z,54.56
2023-02-08T23:14:46.002Z,54.04
2023-02-08T23:17:13.342Z,53.72
2023-02-08T23:19:40.702Z,54.03
2023-02-08T23:22:08.610Z,53.43
2023-02-08T23:24:35.926Z,53.17
2023-02-08T23:27:03.219Z,53.73
2023-02-08T23:29:30.712Z,53.64
2023-02-08T23:31:58.058Z,53.73
2023-02-08T23:34:25.398Z,53.87
2023-02-08T23:36:52.786Z,54.27
2023-02-08T23:39:20.135Z,55.07
2023-02-08T23:41:47.482Z,54.43
2023-02-08T23:44:14.894Z,54.87
2023-02-08T23:46:42.392Z,54.94
2023-02-08T23:49:09.705Z,55.00
2023-02-08T23:51:37.059Z,55.02
2023-02-08T23:54:04.549Z,54.69
2023-02-08T23:56:32.456Z,55.41
2023-02-08T23:59:00.009Z,55.46
